Time;durP1;ratioP1;P1;durP2;ratioP2;P2;SDS_P1;SDS_P2;PMS_P1;PMS_P2;Temp;Humidity;BMP_temperature;BMP_pressure;BME280_temperature;BME280_humidity;BME280_pressure;Samples;Min_cycle;Max_cycle;Signal;HPM_P1;HPM_P2
2022/01/08 00:00:30;;;;;;;1.80;0.60;;;;;;;16.57;63.54;98565.72;3096607;28;20117;-52
2022/01/08 00:02:03;;;;;;;0.50;0.50;;;;;;;16.55;63.40;98560.56;3097404;28;20081;-58
2022/01/08 00:03:36;;;;;;;0.70;0.65;;;;;;;16.53;63.47;98563.44;3097576;28;20460;-56
2022/01/08 00:05:09;;;;;;;0.75;0.50;;;;;;;16.52;63.52;98561.78;3095234;28;20066;-55
2022/01/08 00:06:41;;;;;;;1.23;0.60;;;;;;;16.50;63.58;98561.13;3096784;28;20046;-59
2022/01/08 00:08:13;;;;;;;1.25;0.93;;;;;;;16.49;63.66;98572.03;3096020;28;20053;-53
2022/01/08 00:09:45;;;;;;;1.10;0.60;;;;;;;16.47;63.55;98572.22;3096773;28;20112;-52
2022/01/08 00:11:20;;;;;;;0.52;0.50;;;;;;;16.46;63.60;98567.88;3096485;28;20050;-52
2022/01/08 00:12:53;;;;;;;0.47;0.43;;;;;;;16.45;63.58;98560.06;3095751;28;20046;-56
2022/01/08 00:14:25;;;;;;;0.60;0.60;;;;;;;16.45;63.56;98560.06;3095068;28;20233;-49
2022/01/08 00:15:57;;;;;;;0.65;0.40;;;;;;;16.43;63.60;98556.72;3100136;28;20751;-57
2022/01/08 00:17:29;;;;;;;0.73;0.50;;;;;;;16.43;63.52;98557.56;3091679;28;20042;-53
2022/01/08 00:19:02;;;;;;;1.25;0.73;;;;;;;16.40;63.50;98555.25;3100788;28;20527;-54
2022/01/08 00:20:35;;;;;;;1.02;0.63;;;;;;;16.39;63.65;98558.16;3099075;28;20117;-53
2022/01/08 00:22:08;;;;;;;0.75;0.70;;;;;;;16.37;63.58;98565.53;3102333;28;20048;-54
2022/01/08 00:23:40;;;;;;;0.80;0.55;;;;;;;16.36;63.72;98563.88;3096888;28;20077;-59
2022/01/08 00:25:12;;;;;;;0.75;0.55;;;;;;;16.35;63.60;98567.56;3095527;28;20060;-51
2022/01/08 00:26:44;;;;;;;0.43;0.43;;;;;;;16.32;63.68;98571.44;3096390;28;20096;-55
2022/01/08 00:28:16;;;;;;;1.00;0.55;;;;;;;16.28;63.75;98560.31;3098105;28;20049;-52
2022/01/08 00:29:48;;;;;;;0.85;0.40;;;;;;;16.29;63.89;98556.59;3094617;28;20050;-52
2022/01/08 00:31:20;;;;;;;0.65;0.40;;;;;;;16.27;63.85;98549.81;3100349;28;20053;-53
2022/01/08 00:32:51;;;;;;;1.08;0.57;;;;;;;16.25;63.70;98549.16;3089920;28;20251;-52
2022/01/08 00:34:25;;;;;;;0.57;0.57;;;;;;;16.24;63.75;98542.97;3098998;28;20428;-58
2022/01/08 00:35:57;;;;;;;0.60;0.30;;;;;;;16.24;63.76;98542.97;3097739;28;20054;-56
2022/01/08 00:37:29;;;;;;;0.73;0.68;;;;;;;16.24;63.78;98539.44;3097346;28;20459;-51
2022/01/08 00:39:01;;;;;;;0.73;0.73;;;;;;;16.21;63.89;98537.97;3098003;28;20046;-52
2022/01/08 00:40:33;;;;;;;0.80;0.63;;;;;;;16.20;63.77;98540.88;3096793;28;20046;-57
2022/01/08 00:42:05;;;;;;;1.42;0.60;;;;;;;16.18;63.79;98549.06;3093168;28;20046;-53
2022/01/08 00:43:37;;;;;;;1.08;0.50;;;;;;;16.16;63.96;98542.25;3098481;28;20536;-52
2022/01/08 00:45:10;;;;;;;0.35;0.35;;;;;;;16.15;63.91;98538.75;3099701;28;20054;-53
2022/01/08 00:46:42;;;;;;;0.43;0.40;;;;;;;16.13;63.87;98540.81;3096387;28;20046;-54
2022/01/08 00:48:14;;;;;;;0.40;0.40;;;;;;;16.12;63.93;98533.78;3094968;28;20049;-58
2022/01/08 00:49:47;;;;;;;0.77;0.45;;;;;;;16.12;63.91;98533.78;3098919;28;20049;-51
2022/01/08 00:51:19;;;;;;;0.75;0.55;;;;;;;16.11;63.85;98537.47;3093626;28;20523;-55
2022/01/08 00:52:51;;;;;;;0.85;0.50;;;;;;;16.09;63.86;98528.81;3088847;28;20535;-57
2022/01/08 00:54:23;;;;;;;0.35;0.30;;;;;;;16.06;63.98;98532.69;3097032;28;20046;-53
2022/01/08 00:55:55;;;;;;;0.45;0.45;;;;;;;16.05;63.99;98535.56;3096536;28;20050;-56
2022/01/08 00:57:27;;;;;;;0.68;0.65;;;;;;;16.03;63.85;98530.41;3098537;28;20112;-58
2022/01/08 00:58:58;;;;;;;0.65;0.50;;;;;;;16.02;63.99;98534.09;3096339;28;20054;-53
2022/01/08 01:00:30;;;;;;;0.70;0.60;;;;;;;16.01;63.99;98537.78;3097651;28;20420;-52
2022/01/08 01:02:03;;;;;;;1.15;0.50;;;;;;;16.00;63.92;98535.31;3093651;28;20109;-54
2022/01/08 01:03:35;;;;;;;1.08;0.68;;;;;;;15.99;63.87;98537.16;3099590;28;20069;-51
2022/01/08 01:05:10;;;;;;;0.70;0.63;;;;;;;15.98;64.04;98534.66;3097151;28;20050;-52
2022/01/08 01:06:42;;;;;;;0.55;0.47;;;;;;;15.95;64.02;98529.69;3098404;28;20116;-55
2022/01/08 01:08:14;;;;;;;0.60;0.60;;;;;;;15.95;64.40;98532.34;3095030;28;20629;-54
2022/01/08 01:09:46;;;;;;;0.85;0.50;;;;;;;15.93;64.16;98529.84;3089374;28;20099;-58
2022/01/08 01:11:18;;;;;;;0.40;0.40;;;;;;;15.92;64.11;98538.09;3096457;28;20129;-59
2022/01/08 01:12:50;;;;;;;1.15;0.40;;;;;;;15.91;64.12;98531.06;3096313;28;20068;-59
2022/01/08 01:14:21;;;;;;;0.50;0.50;;;;;;;15.90;64.02;98530.25;3100373;28;20056;-59
2022/01/08 01:15:53;;;;;;;0.75;0.70;;;;;;;15.91;64.22;98536.41;3100992;28;20709;-50
2022/01/08 01:17:25;;;;;;;0.90;0.70;;;;;;;15.87;64.12;98527.94;3097427;28;20044;-55
2022/01/08 01:18:59;;;;;;;0.30;0.30;;;;;;;15.84;64.18;98531.81;3093942;28;20050;-51
2022/01/08 01:20:33;;;;;;;0.88;0.77;;;;;;;15.82;64.21;98533.88;3093848;28;20625;-56
2022/01/08 01:22:05;;;;;;;0.73;0.40;;;;;;;15.83;64.15;98535.53;3093324;28;20535;-56
2022/01/08 01:23:38;;;;;;;0.55;0.50;;;;;;;15.80;64.14;98533.22;3093465;28;20046;-58
2022/01/08 01:25:12;;;;;;;1.70;0.63;;;;;;;15.79;64.16;98530.72;3092293;28;20054;-55
2022/01/08 01:27:03;;;;;;;1.05;0.50;;;;;;;15.78;64.36;98532.59;3096088;28;20520;-55
2022/01/08 01:28:43;;;;;;;2.08;0.60;;;;;;;15.76;64.33;98536.47;3098115;28;20445;-55
2022/01/08 01:30:17;;;;;;;0.95;0.88;;;;;;;15.75;64.24;98530.28;3096177;28;20133;-58
2022/01/08 01:41:23;;;;;;;0.82;0.80;;;;;;;15.66;64.46;98536.72;3084830;28;20046;-56
2022/01/08 01:43:20;;;;;;;0.85;0.50;;;;;;;15.63;64.40;98532.59;3099134;28;20516;-55
2022/01/08 01:47:03;;;;;;;2.92;1.33;;;;;;;15.65;64.35;98527.84;3095365;28;20050;-55
2022/01/08 01:48:34;;;;;;;1.95;0.50;;;;;;;15.67;64.36;98529.53;3097090;28;20060;-56
2022/01/08 01:50:08;;;;;;;0.47;0.40;;;;;;;15.67;64.38;98527.69;3092944;28;20430;-55
2022/01/08 01:51:39;;;;;;;1.50;0.77;;;;;;;15.68;64.25;98526.69;3095183;28;20100;-55
2022/01/08 01:53:12;;;;;;;0.75;0.55;;;;;;;15.68;64.18;98526.69;3092895;28;20132;-53
2022/01/08 01:54:46;;;;;;;0.65;0.60;;;;;;;15.71;64.27;98514.78;3096145;28;20065;-54
2022/01/08 01:56:20;;;;;;;1.52;0.73;;;;;;;15.70;64.25;98518.50;3096068;28;20463;-53
2022/01/08 01:57:54;;;;;;;0.55;0.55;;;;;;;15.70;64.17;98519.31;3092403;28;20069;-56
2022/01/08 01:59:26;;;;;;;1.10;0.70;;;;;;;15.71;64.18;98525.50;3099217;28;20100;-57
2022/01/08 02:00:58;;;;;;;0.88;0.50;;;;;;;15.71;64.11;98525.50;3098088;28;20044;-54
2022/01/08 02:02:30;;;;;;;0.70;0.40;;;;;;;15.69;64.19;98523.03;3096464;28;20057;-51
2022/01/08 02:04:02;;;;;;;0.73;0.60;;;;;;;15.70;64.22;98513.16;3091255;28;20049;-53
2022/01/08 02:05:33;;;;;;;1.35;0.50;;;;;;;15.70;64.18;98508.63;3095326;28;20476;-57
2022/01/08 02:07:08;;;;;;;0.40;0.30;;;;;;;15.70;64.12;98508.63;3098734;28;20054;-56
2022/01/08 02:08:42;;;;;;;0.82;0.63;;;;;;;15.69;64.46;98506.16;3097289;28;21397;-51
2022/01/08 02:10:14;;;;;;;0.77;0.60;;;;;;;15.67;64.28;98506.28;3094516;28;20095;-56
2022/01/08 02:11:59;;;;;;;0.40;0.30;;;;;;;15.69;64.41;98506.16;3098099;28;20053;-52
2022/01/08 02:13:32;;;;;;;0.52;0.40;;;;;;;15.67;64.21;98502.81;3095148;28;20049;-53
2022/01/08 02:15:05;;;;;;;0.65;0.65;;;;;;;15.68;64.33;98502.63;3094848;28;20303;-54
2022/01/08 02:16:36;;;;;;;0.60;0.52;;;;;;;15.68;64.16;98507.13;3093414;28;20062;-51
2022/01/08 02:18:08;;;;;;;0.40;0.40;;;;;;;15.66;64.32;98507.31;3094816;28;20061;-50
2022/01/08 02:19:40;;;;;;;1.67;0.65;;;;;;;15.65;64.32;98497.63;3094911;28;20409;-51
2022/01/08 02:21:14;;;;;;;0.50;0.50;;;;;;;15.64;64.35;98501.31;3098601;28;20676;-52
2022/01/08 02:22:46;;;;;;;0.52;0.45;;;;;;;15.62;64.27;98496.16;3095354;28;20054;-57
2022/01/08 02:24:19;;;;;;;1.08;0.70;;;;;;;15.63;64.27;98497.00;3091712;28;20054;-55
2022/01/08 02:25:51;;;;;;;0.55;0.55;;;;;;;15.62;64.33;98500.69;3094905;28;20054;-54
2022/01/08 02:27:23;;;;;;;0.93;0.75;;;;;;;15.61;64.38;98497.19;3095102;28;20045;-55
2022/01/08 02:28:55;;;;;;;0.55;0.45;;;;;;;15.61;64.24;98491.00;3098064;28;20109;-54
2022/01/08 02:30:27;;;;;;;0.70;0.52;;;;;;;15.60;64.29;98490.19;3097706;28;20402;-57
2022/01/08 02:32:01;;;;;;;0.80;0.57;;;;;;;15.60;64.35;98487.50;3093869;28;20050;-53
2022/01/08 02:33:33;;;;;;;0.20;0.20;;;;;;;15.59;64.19;98485.84;3097065;28;20054;-51
2022/01/08 02:35:06;;;;;;;0.57;0.50;;;;;;;15.59;64.31;98491.19;3091986;28;20133;-54
2022/01/08 02:36:39;;;;;;;0.47;0.47;;;;;;;15.57;64.13;98481.69;3096489;28;20129;-53
2022/01/08 02:38:11;;;;;;;0.63;0.40;;;;;;;15.56;64.19;98483.53;3094707;28;20598;-54
2022/01/08 02:39:44;;;;;;;0.50;0.50;;;;;;;15.56;64.43;98474.69;3094510;28;20049;-52
2022/01/08 02:41:16;;;;;;;1.27;0.77;;;;;;;15.55;64.14;98473.06;3091916;28;20053;-60
2022/01/08 02:42:53;;;;;;;0.40;0.40;;;;;;;15.55;64.35;98473.06;3093243;28;20069;-53
2022/01/08 02:44:26;;;;;;;0.30;0.30;;;;;;;15.54;64.41;98466.03;3089126;28;20483;-54
2022/01/08 02:45:58;;;;;;;0.40;0.40;;;;;;;15.54;64.36;98468.69;3094390;28;20064;-57
2022/01/08 02:47:29;;;;;;;0.80;0.80;;;;;;;15.52;64.34;98465.41;3097099;28;20053;-53
2022/01/08 02:49:01;;;;;;;0.52;0.50;;;;;;;15.52;64.28;98462.75;3093758;28;20041;-55
2022/01/08 02:50:33;;;;;;;0.50;0.50;;;;;;;15.49;64.35;98468.44;3098113;28;20056;-53
2022/01/08 02:52:08;;;;;;;0.30;0.28;;;;;;;15.49;64.28;98468.44;3087971;28;20068;-52
2022/01/08 02:53:39;;;;;;;0.35;0.35;;;;;;;15.48;64.22;98472.13;3093760;28;20065;-59
2022/01/08 02:55:14;;;;;;;0.98;0.50;;;;;;;15.46;64.32;98463.47;3094575;28;20444;-58
2022/01/08 02:56:46;;;;;;;0.30;0.30;;;;;;;15.45;64.36;98462.63;3098472;28;20053;-55
2022/01/08 02:58:19;;;;;;;0.57;0.57;;;;;;;15.45;64.27;98461.81;3088883;28;20058;-55
2022/01/08 02:59:52;;;;;;;1.05;0.70;;;;;;;15.44;64.27;98466.34;3094162;28;20053;-51
2022/01/08 03:01:24;;;;;;;0.52;0.43;;;;;;;15.42;64.49;98463.03;3095989;28;20104;-57
2022/01/08 03:02:56;;;;;;;0.40;0.40;;;;;;;15.41;64.37;98462.19;3095200;28;20042;-56
2022/01/08 03:04:28;;;;;;;0.50;0.40;;;;;;;15.38;64.38;98457.22;3093158;28;20053;-55
2022/01/08 03:06:00;;;;;;;0.88;0.50;;;;;;;15.40;64.39;98457.84;3096439;28;20058;-55
2022/01/08 03:07:33;;;;;;;0.50;0.50;;;;;;;15.39;64.27;98450.03;3093475;28;20057;-52
2022/01/08 03:09:06;;;;;;;0.88;0.50;;;;;;;15.39;64.35;98452.69;3100364;28;20058;-56
2022/01/08 03:10:38;;;;;;;0.70;0.50;;;;;;;15.38;64.45;98448.38;3095615;28;20547;-53
2022/01/08 03:12:10;;;;;;;0.57;0.32;;;;;;;15.37;64.43;98444.88;3098032;28;20050;-53
2022/01/08 03:13:42;;;;;;;1.77;0.75;;;;;;;15.36;64.39;98442.41;3095219;28;20058;-56
2022/01/08 03:15:17;;;;;;;0.43;0.43;;;;;;;15.34;64.47;98436.41;3094643;28;21194;-52
2022/01/08 03:16:49;;;;;;;0.45;0.40;;;;;;;15.32;64.58;98436.59;3099735;28;20078;-56
2022/01/08 03:18:21;;;;;;;0.65;0.47;;;;;;;15.32;64.37;98433.06;3100046;28;20647;-56
2022/01/08 03:19:54;;;;;;;0.70;0.70;;;;;;;15.32;64.34;98430.41;3088438;28;20065;-54
2022/01/08 03:21:34;;;;;;;0.43;0.40;;;;;;;15.29;64.47;98431.59;3096168;28;20133;-52
2022/01/08 03:23:13;;;;;;;0.85;0.60;;;;;;;15.28;64.46;98424.63;3098044;28;20054;-56
2022/01/08 03:24:45;;;;;;;0.77;0.75;;;;;;;15.27;64.55;98428.31;3095266;28;20753;-58
2022/01/08 03:26:19;;;;;;;0.80;0.50;;;;;;;15.27;64.41;98430.97;3097210;28;20287;-55
2022/01/08 03:27:53;;;;;;;1.15;0.60;;;;;;;15.26;64.35;98426.63;3095646;28;20069;-54
2022/01/08 03:29:25;;;;;;;0.43;0.40;;;;;;;15.26;64.57;98426.63;3097804;28;20056;-56
2022/01/08 03:30:57;;;;;;;0.65;0.40;;;;;;;15.24;64.52;98428.69;3102748;28;20631;-55
2022/01/08 03:32:29;;;;;;;0.82;0.70;;;;;;;15.22;64.55;98436.06;3098824;28;20068;-52
2022/01/08 03:34:01;;;;;;;0.85;0.60;;;;;;;15.20;64.63;98438.91;3098063;28;20131;-53
2022/01/08 03:35:33;;;;;;;0.70;0.50;;;;;;;15.21;64.52;98437.09;3100106;28;20084;-51
2022/01/08 03:37:05;;;;;;;1.00;0.50;;;;;;;15.20;64.60;98436.22;3099643;28;20125;-51
2022/01/08 03:38:38;;;;;;;1.52;1.42;;;;;;;15.19;64.55;98437.25;3095697;28;20655;-50
2022/01/08 03:40:10;;;;;;;1.45;0.50;;;;;;;15.20;64.62;98428.22;3096288;28;20057;-53
2022/01/08 03:41:44;;;;;;;0.80;0.50;;;;;;;15.22;64.48;98427.22;3093386;28;20507;-56
2022/01/08 03:43:16;;;;;;;0.47;0.47;;;;;;;15.22;64.46;98422.69;3096725;28;20042;-53
2022/01/08 03:44:47;;;;;;;0.65;0.50;;;;;;;15.24;64.54;98427.84;3095595;28;20087;-53
2022/01/08 03:46:21;;;;;;;1.15;0.70;;;;;;;15.25;64.25;98424.16;3094738;28;20050;-52
2022/01/08 03:48:17;;;;;;;1.27;0.50;;;;;;;15.26;64.38;98431.16;3098691;28;20157;-55
2022/01/08 03:49:49;;;;;;;0.43;0.40;;;;;;;15.28;64.45;98432.63;3094121;28;20056;-59
2022/01/08 03:51:21;;;;;;;1.75;0.80;;;;;;;15.27;64.43;98430.97;3096211;28;20048;-49
2022/01/08 03:52:53;;;;;;;1.35;0.60;;;;;;;15.27;64.47;98433.66;3098446;28;20050;-56
2022/01/08 03:54:26;;;;;;;0.85;0.85;;;;;;;15.28;64.32;98434.47;3095470;28;20141;-53
2022/01/08 03:55:58;;;;;;;0.50;0.43;;;;;;;15.27;64.28;98425.66;3096115;28;20053;-56
2022/01/08 03:57:29;;;;;;;0.55;0.55;;;;;;;15.28;64.38;98429.97;3097383;28;20141;-53
2022/01/08 03:59:01;;;;;;;0.80;0.60;;;;;;;15.27;64.42;98430.97;3095036;28;20042;-55
2022/01/08 04:00:33;;;;;;;0.65;0.63;;;;;;;15.28;64.51;98429.13;3097804;28;20081;-51
2022/01/08 04:02:05;;;;;;;0.80;0.60;;;;;;;15.28;64.53;98423.78;3092298;28;21823;-52
2022/01/08 04:03:37;;;;;;;0.43;0.40;;;;;;;15.26;64.37;98415.13;3096205;28;20050;-56
2022/01/08 04:05:08;;;;;;;0.65;0.43;;;;;;;15.26;64.41;98418.63;3094984;28;20104;-55
2022/01/08 04:06:40;;;;;;;0.60;0.60;;;;;;;15.28;64.31;98418.44;3091968;28;20046;-58
2022/01/08 04:08:12;;;;;;;0.50;0.50;;;;;;;15.26;64.42;98421.28;3097552;28;20531;-50
2022/01/08 04:09:45;;;;;;;0.65;0.50;;;;;;;15.27;64.43;98425.66;3098821;28;20627;-54
2022/01/08 04:11:17;;;;;;;0.22;0.22;;;;;;;15.26;64.50;98431.16;3093026;28;20070;-54
2022/01/08 04:12:54;;;;;;;0.65;0.50;;;;;;;15.25;64.46;98435.69;3093899;28;20113;-56
2022/01/08 04:14:32;;;;;;;0.43;0.43;;;;;;;15.24;64.46;98449.22;3096513;28;20133;-52
2022/01/08 04:16:10;;;;;;;1.80;1.30;;;;;;;15.24;64.34;98458.09;3094772;28;20516;-54
2022/01/08 04:17:42;;;;;;;0.45;0.45;;;;;;;15.25;64.43;98461.56;3093150;28;21311;-53
2022/01/08 04:19:14;;;;;;;0.50;0.50;;;;;;;15.25;64.31;98461.56;3094803;28;20781;-53
2022/01/08 04:21:07;;;;;;;1.30;0.60;;;;;;;15.22;64.34;98465.44;3093922;28;20054;-52
2022/01/08 04:22:39;;;;;;;0.75;0.35;;;;;;;15.22;64.47;98460.09;3096118;28;20046;-53
2022/01/08 04:24:10;;;;;;;0.47;0.47;;;;;;;15.20;64.37;98464.78;3091866;28;20058;-51
2022/01/08 04:25:44;;;;;;;0.77;0.60;;;;;;;15.20;64.36;98464.78;3095574;28;20058;-55
2022/01/08 04:27:16;;;;;;;0.77;0.50;;;;;;;15.19;64.34;98457.81;3099245;28;20578;-52
2022/01/08 04:28:48;;;;;;;0.40;0.30;;;;;;;15.19;64.29;98457.81;3097141;28;20132;-54
2022/01/08 04:30:20;;;;;;;0.60;0.30;;;;;;;15.19;64.41;98458.63;3097218;28;20057;-55
2022/01/08 04:31:52;;;;;;;0.47;0.40;;;;;;;15.18;64.32;98461.47;3093425;28;20675;-52
2022/01/08 04:33:24;;;;;;;0.55;0.40;;;;;;;15.18;64.43;98458.81;3099733;28;20046;-52
2022/01/08 04:34:56;;;;;;;0.47;0.38;;;;;;;15.16;64.41;98463.53;3096306;28;20507;-49
2022/01/08 04:36:28;;;;;;;0.40;0.40;;;;;;;15.16;64.39;98469.69;3096959;28;20053;-53
2022/01/08 04:37:59;;;;;;;0.68;0.38;;;;;;;15.16;64.40;98474.22;3088030;28;20053;-56
2022/01/08 04:39:31;;;;;;;0.40;0.40;;;;;;;15.14;64.48;98470.88;3094801;28;20057;-56
2022/01/08 04:41:05;;;;;;;0.38;0.38;;;;;;;15.13;64.42;98475.41;3094207;28;20049;-57
2022/01/08 04:42:37;;;;;;;0.20;0.20;;;;;;;15.12;64.47;98479.06;3096479;28;20709;-50
2022/01/08 04:44:09;;;;;;;1.15;0.50;;;;;;;15.10;64.47;98473.09;3095422;28;20133;-55
2022/01/08 04:45:42;;;;;;;0.98;0.80;;;;;;;15.11;64.47;98481.94;3095577;28;20141;-56
2022/01/08 04:47:15;;;;;;;0.95;0.70;;;;;;;15.10;64.52;98478.44;3094812;28;20053;-52
2022/01/08 04:48:46;;;;;;;0.85;0.43;;;;;;;15.11;64.31;98481.94;3098552;28;20054;-53
2022/01/08 04:50:18;;;;;;;1.42;0.43;;;;;;;15.09;64.52;98476.78;3097141;28;20042;-58
2022/01/08 04:51:50;;;;;;;0.55;0.47;;;;;;;15.09;64.44;98481.28;3098960;28;20058;-57
2022/01/08 04:53:22;;;;;;;0.68;0.43;;;;;;;15.08;64.48;98476.97;3098226;28;20050;-54
2022/01/08 04:54:54;;;;;;;0.65;0.40;;;;;;;15.07;64.30;98469.94;3086269;28;20058;-55
2022/01/08 04:56:28;;;;;;;0.65;0.60;;;;;;;15.05;64.40;98475.50;3097112;28;20042;-53
2022/01/08 04:57:59;;;;;;;0.88;0.73;;;;;;;15.05;64.42;98475.50;3093905;28;20672;-52
2022/01/08 04:59:30;;;;;;;0.98;0.50;;;;;;;15.06;64.52;98474.47;3096582;28;20038;-54
2022/01/08 05:01:02;;;;;;;0.82;0.50;;;;;;;15.08;64.28;98471.63;3096447;28;20210;-58
2022/01/08 05:02:34;;;;;;;0.40;0.35;;;;;;;15.07;64.44;98476.16;3095606;28;20201;-58
2022/01/08 05:04:06;;;;;;;1.02;0.82;;;;;;;15.08;64.53;98471.63;3095433;28;20058;-59
2022/01/08 05:05:38;;;;;;;0.65;0.40;;;;;;;15.06;64.28;98469.13;3092789;28;20058;-53
2022/01/08 05:07:10;;;;;;;0.93;0.70;;;;;;;15.08;64.31;98468.97;3100042;28;20500;-55
2022/01/08 05:08:42;;;;;;;0.60;0.60;;;;;;;15.13;64.25;98479.91;3096918;28;20042;-55
2022/01/08 05:10:14;;;;;;;0.70;0.70;;;;;;;15.18;64.26;98472.16;3094411;28;20050;-56
2022/01/08 05:11:48;;;;;;;0.77;0.60;;;;;;;15.25;64.16;98478.44;3089449;28;20046;-52
2022/01/08 05:13:20;;;;;;;0.60;0.30;;;;;;;15.32;64.04;98478.50;3093474;28;20067;-51
2022/01/08 05:14:52;;;;;;;0.57;0.40;;;;;;;15.37;64.18;98476.09;3092131;28;20042;-55
2022/01/08 05:16:24;;;;;;;0.50;0.50;;;;;;;15.46;64.13;98471.47;3094836;28;20054;-55
2022/01/08 05:17:56;;;;;;;1.02;0.90;;;;;;;15.52;63.95;98478.78;3098765;28;20133;-56
2022/01/08 05:19:40;;;;;;;0.82;0.43;;;;;;;15.58;64.01;98478.03;3096524;28;20158;-51
2022/01/08 05:21:19;;;;;;;0.30;0.30;;;;;;;15.64;63.77;98483.44;3094702;28;20046;-54
2022/01/08 05:22:53;;;;;;;0.40;0.40;;;;;;;15.71;63.88;98482.72;3098582;28;20081;-55
2022/01/08 05:24:25;;;;;;;0.65;0.40;;;;;;;15.77;63.70;98488.16;3098570;28;20072;-53
2022/01/08 05:25:57;;;;;;;0.65;0.55;;;;;;;15.81;63.58;98478.72;3095345;28;20105;-53
2022/01/08 05:27:30;;;;;;;1.17;0.63;;;;;;;15.87;63.38;98482.47;3094507;28;20058;-53
2022/01/08 05:29:02;;;;;;;0.47;0.30;;;;;;;15.90;63.39;98486.63;3098845;28;20045;-55
2022/01/08 05:30:34;;;;;;;0.65;0.47;;;;;;;15.95;63.29;98481.53;3088510;28;20046;-54
2022/01/08 05:32:05;;;;;;;0.95;0.68;;;;;;;15.97;63.28;98479.50;3097749;28;20064;-53
2022/01/08 05:33:37;;;;;;;0.70;0.40;;;;;;;15.99;63.29;98480.97;3097877;28;20082;-53
2022/01/08 05:35:10;;;;;;;0.50;0.38;;;;;;;16.03;63.54;98476.06;3093439;28;20062;-56
2022/01/08 05:36:42;;;;;;;0.40;0.35;;;;;;;16.05;63.19;98476.72;3098006;28;20050;-54
2022/01/08 05:38:14;;;;;;;0.35;0.35;;;;;;;16.07;63.24;98480.84;3095056;28;20046;-52
2022/01/08 05:39:47;;;;;;;0.50;0.40;;;;;;;16.10;63.12;98479.63;3090862;28;20046;-56
2022/01/08 05:41:19;;;;;;;0.20;0.20;;;;;;;16.13;63.21;98481.09;3093028;28;20669;-55
2022/01/08 05:42:52;;;;;;;0.98;0.60;;;;;;;16.14;63.17;98475.56;3098076;28;20054;-52
2022/01/08 05:44:24;;;;;;;0.52;0.52;;;;;;;16.15;63.14;98477.19;3097221;28;20050;-51
2022/01/08 05:45:57;;;;;;;0.65;0.50;;;;;;;16.17;63.21;98477.84;3097425;28;20742;-53
2022/01/08 05:47:31;;;;;;;0.85;0.60;;;;;;;16.18;62.92;98467.97;3092829;28;20718;-52
2022/01/08 05:49:04;;;;;;;1.10;0.90;;;;;;;16.20;62.96;98472.13;3096166;28;20054;-55
2022/01/08 05:50:36;;;;;;;0.60;0.52;;;;;;;16.21;62.91;98468.41;3093710;28;20083;-55
2022/01/08 05:52:08;;;;;;;0.57;0.50;;;;;;;16.23;62.92;98470.91;3096787;28;20566;-60
2022/01/08 05:53:40;;;;;;;0.47;0.40;;;;;;;16.25;62.85;98472.38;3094601;28;20513;-58
2022/01/08 05:55:12;;;;;;;0.50;0.40;;;;;;;16.25;62.94;98469.69;3098493;28;20045;-55
2022/01/08 05:56:44;;;;;;;0.38;0.32;;;;;;;16.26;62.76;98468.66;3096435;28;20056;-56
2022/01/08 05:58:17;;;;;;;0.35;0.35;;;;;;;16.28;62.78;98469.31;3092411;28;20042;-58
2022/01/08 05:59:48;;;;;;;0.60;0.40;;;;;;;16.30;62.79;98472.63;3090855;28;20058;-55
2022/01/08 06:01:20;;;;;;;0.47;0.37;;;;;;;16.31;62.78;98474.28;3092370;28;20062;-55
2022/01/08 06:02:51;;;;;;;0.50;0.50;;;;;;;16.34;62.76;98477.59;3094950;28;20292;-55
2022/01/08 06:04:24;;;;;;;0.30;0.30;;;;;;;16.33;62.78;98476.78;3095245;28;20366;-57
2022/01/08 06:05:56;;;;;;;0.40;0.40;;;;;;;16.34;62.66;98466.88;3094370;28;20080;-56
2022/01/08 06:07:27;;;;;;;0.80;0.40;;;;;;;16.36;62.63;98470.22;3093745;28;21362;-55
2022/01/08 06:08:59;;;;;;;1.23;0.50;;;;;;;16.35;62.64;98458.66;3095564;28;20070;-54
2022/01/08 06:10:31;;;;;;;0.75;0.40;;;;;;;16.36;62.75;98459.50;3101132;28;20046;-56
2022/01/08 06:12:04;;;;;;;0.70;0.38;;;;;;;16.36;62.64;98454.97;3096469;28;20188;-59
2022/01/08 06:13:37;;;;;;;0.38;0.28;;;;;;;16.37;62.62;98456.59;3098574;28;20050;-52
2022/01/08 06:15:10;;;;;;;0.77;0.60;;;;;;;16.39;62.50;98459.09;3093888;28;20058;-56
2022/01/08 06:16:42;;;;;;;0.80;0.40;;;;;;;16.39;62.66;98464.47;3093404;28;20100;-57
2022/01/08 06:18:16;;;;;;;0.50;0.50;;;;;;;16.38;62.65;98458.28;3098422;28;20095;-60
2022/01/08 06:19:47;;;;;;;0.75;0.40;;;;;;;16.39;62.62;98453.75;3096235;28;20538;-54
2022/01/08 06:21:19;;;;;;;0.52;0.30;;;;;;;16.39;62.58;98457.25;3089333;28;20053;-53
2022/01/08 06:22:51;;;;;;;0.68;0.50;;;;;;;16.39;62.39;98454.56;3098573;28;20050;-55
2022/01/08 06:24:23;;;;;;;0.65;0.55;;;;;;;16.40;62.56;98450.88;3094411;28;20065;-55
2022/01/08 06:25:54;;;;;;;0.20;0.20;;;;;;;16.40;62.43;98456.22;3094672;28;20408;-58
2022/01/08 06:27:26;;;;;;;0.40;0.40;;;;;;;16.40;62.38;98455.41;3095363;28;20038;-56
2022/01/08 06:29:00;;;;;;;0.22;0.22;;;;;;;16.41;62.49;98462.41;3096518;28;20052;-58
2022/01/08 06:30:32;;;;;;;0.77;0.52;;;;;;;16.40;62.56;98456.22;3094241;28;20138;-51
2022/01/08 06:32:04;;;;;;;1.10;0.50;;;;;;;16.41;62.38;98465.06;3093092;28;20124;-56
2022/01/08 06:33:36;;;;;;;0.30;0.30;;;;;;;16.41;62.60;98462.41;3096819;28;20558;-55
2022/01/08 06:35:08;;;;;;;0.60;0.30;;;;;;;16.42;62.49;98458.72;3092647;28;20109;-57
2022/01/08 06:36:40;;;;;;;0.38;0.38;;;;;;;16.42;62.49;98456.88;3098242;28;20042;-59
2022/01/08 06:38:12;;;;;;;0.40;0.38;;;;;;;16.41;62.59;98457.03;3096469;28;20054;-58
2022/01/08 06:39:44;;;;;;;0.40;0.40;;;;;;;16.41;62.35;98452.53;3096830;28;20051;-53
2022/01/08 06:41:16;;;;;;;1.27;0.80;;;;;;;16.42;62.35;98453.38;3089258;28;20050;-57
2022/01/08 06:42:48;;;;;;;0.28;0.28;;;;;;;16.42;62.34;98448.84;3099627;28;20053;-57
2022/01/08 06:44:21;;;;;;;0.40;0.40;;;;;;;16.42;62.43;98445.34;3096045;28;20052;-57
2022/01/08 06:45:53;;;;;;;0.30;0.30;;;;;;;16.42;62.46;98445.34;3089653;28;20695;-55
2022/01/08 06:47:25;;;;;;;0.35;0.30;;;;;;;16.41;62.46;98443.66;3094838;28;20054;-54
2022/01/08 06:48:56;;;;;;;0.13;0.08;;;;;;;16.40;62.42;98442.84;3096402;28;20070;-56
2022/01/08 06:50:28;;;;;;;0.30;0.30;;;;;;;16.41;62.38;98432.94;3098511;28;20446;-53
2022/01/08 06:52:00;;;;;;;1.33;0.20;;;;;;;16.38;62.33;98439.56;3100407;28;20120;-53
2022/01/08 06:53:32;;;;;;;2.58;0.40;;;;;;;16.39;62.43;98435.00;3088349;28;20054;-52
2022/01/08 06:55:04;;;;;;;0.52;0.30;;;;;;;16.38;62.41;98436.88;3097104;28;20123;-57
2022/01/08 06:56:36;;;;;;;1.55;0.45;;;;;;;16.38;62.55;98436.88;3090676;28;20058;-54
2022/01/08 06:58:08;;;;;;;0.47;0.47;;;;;;;16.37;62.36;98432.53;3096221;28;20058;-55
2022/01/08 06:59:41;;;;;;;0.57;0.50;;;;;;;16.38;62.40;98436.03;3095315;28;20704;-52
2022/01/08 07:01:13;;;;;;;0.55;0.40;;;;;;;16.36;62.36;98430.88;3099721;28;20046;-56
2022/01/08 07:02:45;;;;;;;2.20;0.50;;;;;;;16.35;62.38;98431.88;3093672;28;20093;-55
2022/01/08 07:04:17;;;;;;;0.68;0.68;;;;;;;16.34;62.52;98430.22;3096929;28;20428;-54
2022/01/08 07:05:49;;;;;;;0.68;0.60;;;;;;;16.33;62.67;98436.63;3096910;28;20479;-53
2022/01/08 07:07:21;;;;;;;0.57;0.45;;;;;;;16.33;62.62;98427.78;3099756;28;20097;-58
2022/01/08 07:08:53;;;;;;;1.02;0.55;;;;;;;16.30;62.69;98429.81;3096280;28;20131;-57
2022/01/08 07:10:25;;;;;;;0.85;0.30;;;;;;;16.30;62.63;98435.16;3097977;28;20046;-55
2022/01/08 07:11:57;;;;;;;0.43;0.22;;;;;;;16.29;62.56;98438.84;3090531;28;20051;-49
2022/01/08 07:13:29;;;;;;;0.73;0.55;;;;;;;16.29;62.59;98446.03;3094545;28;20585;-56
2022/01/08 07:15:03;;;;;;;2.15;0.38;;;;;;;16.27;62.58;98451.59;3094553;28;20041;-55
2022/01/08 07:16:35;;;;;;;0.40;0.25;;;;;;;16.26;62.71;98452.59;3093846;28;20054;-54
2022/01/08 07:18:07;;;;;;;0.40;0.40;;;;;;;16.27;62.70;98453.47;3093822;28;20051;-56
2022/01/08 07:19:39;;;;;;;2.42;0.52;;;;;;;16.26;62.87;98465.97;3095127;28;20053;-52
2022/01/08 07:21:11;;;;;;;1.77;0.95;;;;;;;16.26;62.78;98457.97;3088022;28;20049;-56
2022/01/08 07:22:43;;;;;;;1.10;0.90;;;;;;;16.26;62.78;98463.31;3096346;28;20057;-55
2022/01/08 07:24:14;;;;;;;1.23;0.60;;;;;;;16.26;62.78;98465.97;3095540;28;20065;-55
2022/01/08 07:25:46;;;;;;;1.63;0.50;;;;;;;16.27;62.88;98458.81;3094784;28;20058;-58
2022/01/08 07:27:18;;;;;;;1.05;0.40;;;;;;;16.30;62.91;98466.44;3097252;28;20061;-53
2022/01/08 07:28:50;;;;;;;1.08;0.75;;;;;;;16.30;62.84;98464.59;3097007;28;20181;-55